Vauxhall, New Jersey
Current Conditions -  °F | °C
As of 7:13 PM on Wednesday 26 Nov 2014 (Local Time) from KEWR Reporting Station
Light Rain Light Rain  
Wind Chill: 26°   Ceiling: 1100
Heat Index: 36°   Visibility: 3mi
Dew Point: 34°   Wind: 16mph
Humidity: 93%   Direction: 330°NNW
Pressure: 29.81"   Gusts: 26mph
Location:  40.73°N, 74.28°W
Report Text: KEWR 270013Z 33014G23KT 3SM -RA BR SCT007 BKN011 OVC018 02/01 A2981 RMK AO2 SFC VIS 6 P0001
Loading
Personal Weather Stations






























Interactive Weather Map New forecast layout! Learn more

10-Day Weather Forecast

Advertisements
Track Severe Weather on mobile